Time;durP1;ratioP1;P1;durP2;ratioP2;P2;SDS_P1;SDS_P2;PMS_P1;PMS_P2;Temp;Humidity;BMP_temperature;BMP_pressure;BME280_temperature;BME280_humidity;BME280_pressure;Samples;Min_cycle;Max_cycle;Signal;HPM_P1;HPM_P2
2022/05/12 00:02:38;;;;;;;3.40;0.93;;;;;;;18.83;48.47;100204.97;6244440;23;20077;-73
2022/05/12 00:06:12;;;;;;;3.88;1.10;;;;;;;18.61;48.06;100211.34;6244529;22;20023;-74
2022/05/12 00:09:17;;;;;;;4.75;1.25;;;;;;;18.83;47.88;100212.91;6244710;23;20058;-74
2022/05/12 00:12:24;;;;;;;3.63;1.05;;;;;;;18.85;47.45;100224.19;6244753;23;20571;-74
2022/05/12 00:15:32;;;;;;;2.58;0.70;;;;;;;19.02;46.68;100234.06;6244449;23;20066;-74
2022/05/12 00:18:38;;;;;;;8.73;1.35;;;;;;;19.22;46.12;100233.06;6244432;23;20093;-73
2022/05/12 00:21:43;;;;;;;6.93;1.10;;;;;;;19.34;46.15;100235.56;6244654;23;20019;-74
2022/05/12 00:24:53;;;;;;;5.20;1.00;;;;;;;19.24;46.62;100230.25;6245749;23;20023;-74
2022/05/12 00:28:44;;;;;;;3.28;1.00;;;;;;;19.24;46.99;100249.66;6246692;23;20026;-74
2022/05/12 00:32:10;;;;;;;4.85;0.95;;;;;;;19.42;46.93;100254.22;6246486;23;20054;-74
2022/05/12 00:35:18;;;;;;;4.22;1.20;;;;;;;19.46;47.23;100260.88;6246613;23;20103;-74
2022/05/12 00:38:22;;;;;;;2.22;0.90;;;;;;;19.44;47.75;100268.16;6246617;23;20074;-74
2022/05/12 00:41:27;;;;;;;4.18;0.80;;;;;;;19.43;48.17;100271.78;6246464;23;20062;-74
2022/05/12 00:44:32;;;;;;;3.72;1.30;;;;;;;19.40;48.43;100274.72;6246247;23;20059;-74
2022/05/12 00:47:38;;;;;;;5.53;1.02;;;;;;;19.35;49.07;100279.63;6246204;23;20073;-74
2022/05/12 00:50:44;;;;;;;5.70;1.20;;;;;;;19.07;50.69;100290.13;6227771;23;20042;-74
2022/05/12 00:53:51;;;;;;;4.40;1.13;;;;;;;19.19;50.37;100302.25;6246463;23;20578;-74
2022/05/12 00:56:55;;;;;;;5.10;0.90;;;;;;;19.21;50.58;100310.06;6246516;23;20352;-74
2022/05/12 01:00:03;;;;;;;3.45;0.70;;;;;;;19.27;50.64;100309.47;6246167;23;20023;-74
2022/05/12 01:03:16;;;;;;;4.55;1.13;;;;;;;19.31;51.02;100312.72;6227646;23;20411;-73
2022/05/12 01:06:20;;;;;;;5.00;1.25;;;;;;;19.47;50.58;100328.88;6246369;23;20023;-74
2022/05/12 01:09:26;;;;;;;10.57;1.45;;;;;;;19.02;51.54;100322.34;6246093;23;20343;-74
2022/05/12 01:12:31;;;;;;;4.25;1.17;;;;;;;19.18;51.39;100327.09;6246687;23;20078;-74
2022/05/12 01:15:38;;;;;;;3.78;0.85;;;;;;;19.31;51.24;100339.22;6245971;23;20030;-74
2022/05/12 01:18:43;;;;;;;3.95;0.80;;;;;;;18.99;52.07;100350.94;6227635;23;20226;-74
2022/05/12 01:21:50;;;;;;;5.13;1.20;;;;;;;18.93;52.17;100357.63;6246209;23;20023;-74
2022/05/12 01:24:54;;;;;;;5.63;0.98;;;;;;;18.90;52.77;100360.56;6245703;23;20081;-74
2022/05/12 01:27:58;;;;;;;4.88;1.08;;;;;;;18.79;53.37;100373.91;6246238;23;20027;-74
2022/05/12 01:31:03;;;;;;;4.88;1.23;;;;;;;18.77;53.31;100376.72;6245680;23;20066;-74
2022/05/12 01:34:09;;;;;;;6.90;1.35;;;;;;;18.60;53.16;100385.25;6246019;23;20396;-74
2022/05/12 01:37:15;;;;;;;7.03;1.40;;;;;;;18.86;52.35;100390.09;6245813;23;20082;-74
2022/05/12 01:40:22;;;;;;;13.68;1.08;;;;;;;18.95;52.27;100392.78;6245966;23;20023;-74
2022/05/12 01:43:26;;;;;;;6.10;1.63;;;;;;;18.49;53.64;100404.75;6245797;23;20096;-74
2022/05/12 01:46:33;;;;;;;4.95;1.58;;;;;;;18.35;54.05;100408.59;6245769;23;20097;-74
2022/05/12 01:49:37;;;;;;;4.75;1.13;;;;;;;18.53;53.97;100418.56;6227141;23;20027;-74
2022/05/12 01:52:43;;;;;;;14.20;2.22;;;;;;;18.50;54.47;100421.47;6245691;23;20034;-74
2022/05/12 01:55:49;;;;;;;5.38;1.20;;;;;;;18.50;54.76;100421.47;6245758;23;20403;-74
2022/05/12 01:58:55;;;;;;;7.55;1.35;;;;;;;18.58;55.29;100424.28;6245638;23;20023;-74
2022/05/12 02:02:09;;;;;;;6.32;1.13;;;;;;;18.61;55.08;100421.38;6246088;23;20027;-74
2022/05/12 02:05:13;;;;;;;6.75;1.25;;;;;;;18.66;55.03;100426.25;6245693;22;20050;-74
2022/05/12 02:08:31;;;;;;;5.90;1.38;;;;;;;18.46;56.67;100430.66;6246035;23;20038;-74
2022/05/12 02:11:35;;;;;;;12.52;1.80;;;;;;;18.13;57.66;100427.31;6245784;23;20031;-74
2022/05/12 02:14:39;;;;;;;5.88;1.27;;;;;;;18.21;57.40;100437.22;6245066;23;20051;-73
2022/05/12 02:17:43;;;;;;;10.65;1.38;;;;;;;18.12;57.79;100433.53;6245630;23;20065;-74
2022/05/12 02:20:47;;;;;;;5.13;1.63;;;;;;;18.14;57.65;100442.19;6245612;23;20023;-74
2022/05/12 02:23:51;;;;;;;8.85;1.33;;;;;;;18.24;57.21;100445.72;6245659;23;20023;-74
2022/05/12 02:26:56;;;;;;;8.80;1.75;;;;;;;18.09;57.56;100444.38;6245249;23;20095;-73
2022/05/12 02:30:03;;;;;;;9.05;1.58;;;;;;;18.26;57.93;100457.03;6245282;23;20023;-74
2022/05/12 02:33:42;;;;;;;6.50;1.17;;;;;;;18.33;58.44;100452.88;6245381;23;20083;-73
2022/05/12 02:36:59;;;;;;;7.45;1.35;;;;;;;18.22;58.96;100466.22;6245438;23;20074;-73
2022/05/12 02:40:04;;;;;;;9.57;1.40;;;;;;;18.06;59.67;100477.25;6245389;23;20066;-74
2022/05/12 02:43:31;;;;;;;4.57;1.45;;;;;;;17.99;60.20;100491.94;6244702;23;20047;-74
2022/05/12 02:46:33;;;;;;;8.68;1.27;;;;;;;17.84;60.09;100488.81;6245144;23;20026;-74
2022/05/12 02:49:37;;;;;;;6.72;1.40;;;;;;;17.82;60.50;100496.00;6245256;23;20348;-74
2022/05/12 02:52:42;;;;;;;5.20;1.17;;;;;;;17.73;62.51;100504.69;6227013;23;20101;-74
2022/05/12 02:55:46;;;;;;;6.95;1.05;;;;;;;17.29;62.60;100511.78;6245161;23;20027;-74
2022/05/12 02:58:52;;;;;;;6.15;1.27;;;;;;;17.64;61.16;100519.50;6245113;23;20081;-74
2022/05/12 03:01:55;;;;;;;4.88;1.50;;;;;;;17.62;61.08;100523.25;6245276;23;20027;-74
2022/05/12 03:04:59;;;;;;;5.82;1.25;;;;;;;17.76;60.78;100525.59;6245180;22;20524;-74
2022/05/12 03:08:17;;;;;;;9.38;1.83;;;;;;;17.72;60.67;100529.44;6245274;23;20027;-73
2022/05/12 03:11:21;;;;;;;6.40;1.75;;;;;;;17.74;60.95;100543.41;6244750;23;20078;-73
2022/05/12 03:14:24;;;;;;;6.05;1.10;;;;;;;17.67;61.35;100536.91;6244804;23;20103;-74
2022/05/12 03:17:29;;;;;;;6.47;1.10;;;;;;;17.71;61.68;100545.44;6245095;23;20077;-74
2022/05/12 03:20:33;;;;;;;6.10;1.33;;;;;;;17.59;62.11;100542.84;6245027;23;20069;-73
2022/05/12 03:23:40;;;;;;;10.23;1.25;;;;;;;17.52;62.07;100546.13;6245030;23;20051;-74
2022/05/12 03:26:48;;;;;;;5.75;1.42;;;;;;;17.46;62.17;100559.81;6244308;23;20466;-74
2022/05/12 03:29:54;;;;;;;9.77;1.52;;;;;;;17.05;62.89;100559.50;6244865;23;20070;-74
2022/05/12 03:32:58;;;;;;;6.93;1.15;;;;;;;17.09;62.29;100560.09;6242592;23;20029;-74
2022/05/12 03:36:03;;;;;;;3.25;1.23;;;;;;;17.37;60.86;100567.53;6240888;23;20031;-74
2022/05/12 03:39:08;;;;;;;4.10;1.02;;;;;;;17.36;58.72;100573.78;6240743;23;20355;-73
2022/05/12 03:42:15;;;;;;;5.38;0.82;;;;;;;17.09;59.49;100576.78;6240635;23;20066;-74
2022/05/12 03:45:21;;;;;;;6.50;0.80;;;;;;;17.25;58.41;100592.28;6240856;23;20063;-73
2022/05/12 03:48:51;;;;;;;5.93;1.10;;;;;;;17.33;59.77;100603.09;6240534;23;20031;-73
2022/05/12 03:51:58;;;;;;;4.97;0.90;;;;;;;16.86;58.51;100601.53;6240698;23;20074;-74
2022/05/12 03:55:06;;;;;;;3.65;0.88;;;;;;;17.14;58.31;100616.91;6240269;23;20146;-74
2022/05/12 03:58:10;;;;;;;4.68;1.00;;;;;;;16.88;57.04;100615.44;6239362;23;20046;-73
2022/05/12 04:01:15;;;;;;;6.05;1.08;;;;;;;17.17;56.81;100611.38;6242923;23;20477;-73
2022/05/12 04:04:21;;;;;;;4.45;1.25;;;;;;;17.26;57.34;100620.41;6243081;22;20022;-73
2022/05/12 04:07:29;;;;;;;6.47;0.93;;;;;;;17.35;57.46;100630.22;6242917;23;20407;-73
2022/05/12 04:10:37;;;;;;;3.58;1.25;;;;;;;17.20;57.54;100631.44;6221893;23;20104;-73
2022/05/12 04:13:45;;;;;;;4.75;1.00;;;;;;;16.98;57.60;100636.72;6238089;23;20058;-74
2022/05/12 04:16:49;;;;;;;3.60;0.80;;;;;;;17.04;58.33;100641.50;6240688;23;20031;-73
2022/05/12 04:19:55;;;;;;;6.97;0.85;;;;;;;17.12;57.87;100645.25;6241250;23;20432;-74
2022/05/12 04:23:00;;;;;;;2.95;0.77;;;;;;;16.95;58.59;100661.56;6242021;23;20041;-73
2022/05/12 04:26:04;;;;;;;5.75;1.00;;;;;;;17.07;60.86;100662.41;6241826;23;20338;-73
2022/05/12 04:29:10;;;;;;;5.30;1.00;;;;;;;16.80;61.40;100671.50;6238119;23;20372;-74
2022/05/12 04:32:16;;;;;;;4.28;0.60;;;;;;;16.74;60.15;100675.41;6238598;23;20071;-74
2022/05/12 04:35:24;;;;;;;5.60;0.90;;;;;;;16.74;61.58;100679.84;6220263;23;20103;-73
2022/05/12 04:38:29;;;;;;;5.50;0.77;;;;;;;16.59;61.55;100676.59;6239376;23;20146;-73
2022/05/12 04:41:36;;;;;;;4.03;1.00;;;;;;;16.27;61.14;100671.03;6240983;23;20023;-73
2022/05/12 04:44:41;;;;;;;5.25;1.73;;;;;;;16.15;61.50;100685.16;6241402;23;20090;-73
2022/05/12 04:47:50;;;;;;;8.90;1.40;;;;;;;16.36;62.09;100678.28;6240176;23;20359;-73
2022/05/12 04:50:59;;;;;;;5.65;1.00;;;;;;;16.24;63.53;100695.00;6240301;23;20077;-74
2022/05/12 04:54:09;;;;;;;4.07;1.10;;;;;;;16.43;61.60;100694.50;6240688;23;20387;-73
2022/05/12 04:57:14;;;;;;;3.40;0.60;;;;;;;16.48;60.91;100708.19;6240948;23;20094;-73
2022/05/12 05:00:47;;;;;;;3.70;0.85;;;;;;;15.92;62.81;100714.03;6241364;23;20063;-73
2022/05/12 05:04:00;;;;;;;5.10;1.17;;;;;;;16.10;61.75;100709.22;6240843;22;20344;-74
2022/05/12 05:07:06;;;;;;;4.05;0.90;;;;;;;16.30;61.58;100720.94;6240548;23;20031;-73
2022/05/12 05:10:12;;;;;;;5.15;1.00;;;;;;;16.08;62.65;100720.81;6240213;23;20023;-73
2022/05/12 05:13:21;;;;;;;3.05;0.70;;;;;;;15.83;63.39;100733.16;6240020;23;20521;-73
2022/05/12 05:16:28;;;;;;;6.65;0.90;;;;;;;16.08;62.96;100741.91;6240739;23;20113;-74
2022/05/12 05:19:35;;;;;;;2.80;0.85;;;;;;;15.98;63.89;100747.84;6240458;23;20023;-73
2022/05/12 05:22:38;;;;;;;3.97;0.85;;;;;;;15.98;63.95;100737.31;6238541;23;20030;-73
2022/05/12 05:25:43;;;;;;;4.82;1.00;;;;;;;16.07;63.69;100750.78;6239719;23;20031;-73
2022/05/12 05:28:47;;;;;;;4.78;1.00;;;;;;;15.90;63.74;100752.00;6241096;23;20027;-73
2022/05/12 05:31:52;;;;;;;5.18;1.00;;;;;;;16.09;63.28;100760.28;6240177;23;20074;-73
2022/05/12 05:34:56;;;;;;;2.70;0.80;;;;;;;16.27;60.86;100758.09;6221357;23;20501;-73
2022/05/12 05:38:59;;;;;;;3.30;1.02;;;;;;;16.11;60.24;100768.06;6239528;23;20058;-73
2022/05/12 05:42:09;;;;;;;4.25;1.42;;;;;;;16.39;59.98;100780.97;6239808;23;20027;-73
2022/05/12 05:45:16;;;;;;;2.97;1.02;;;;;;;16.36;60.48;100785.63;6221628;23;20039;-74
2022/05/12 05:48:21;;;;;;;5.20;1.00;;;;;;;16.13;61.32;100782.84;6239878;23;20293;-73
2022/05/12 05:54:50;;;;;;;6.72;1.58;;;;;;;16.15;60.70;100795.94;6239733;23;20474;-73
2022/05/12 05:58:01;;;;;;;4.32;1.00;;;;;;;16.10;60.95;100803.34;6240019;23;20031;-74
2022/05/12 06:01:08;;;;;;;4.25;1.23;;;;;;;16.07;61.02;100803.56;6239692;23;20031;-73
2022/05/12 06:04:12;;;;;;;6.20;1.73;;;;;;;16.25;60.74;100812.81;6238874;22;20470;-74
2022/05/12 06:07:16;;;;;;;4.28;1.08;;;;;;;16.36;60.39;100818.13;6239742;23;20027;-73
2022/05/12 06:10:20;;;;;;;4.68;1.30;;;;;;;16.30;60.96;100829.13;6238760;23;20517;-73
2022/05/12 06:13:27;;;;;;;5.57;1.67;;;;;;;16.09;60.86;100828.88;6239093;23;20588;-73
2022/05/12 06:16:31;;;;;;;7.00;1.92;;;;;;;16.03;61.10;100824.03;6242198;23;20026;-73
2022/05/12 06:19:36;;;;;;;8.02;1.27;;;;;;;16.39;60.33;100831.13;6242075;23;20023;-73
2022/05/12 06:22:40;;;;;;;6.63;1.10;;;;;;;16.48;59.47;100835.72;6239686;23;20066;-74
2022/05/12 06:25:44;;;;;;;2.92;0.90;;;;;;;16.66;59.39;100838.00;6238879;23;20031;-73
2022/05/12 06:28:49;;;;;;;7.07;2.00;;;;;;;16.51;59.89;100840.78;6239616;23;20023;-73
2022/05/12 06:31:54;;;;;;;5.63;1.38;;;;;;;16.25;60.38;100845.31;6221534;23;20023;-74
2022/05/12 06:35:01;;;;;;;5.82;1.77;;;;;;;16.35;60.01;100845.50;6238889;23;20027;-73
2022/05/12 06:38:05;;;;;;;4.60;1.30;;;;;;;16.60;59.37;100851.66;6240246;23;20497;-73
2022/05/12 06:41:09;;;;;;;5.70;1.77;;;;;;;16.31;59.85;100851.94;6240218;23;20031;-73
2022/05/12 06:44:13;;;;;;;5.63;1.60;;;;;;;16.51;58.69;100855.78;6240252;23;20027;-73
2022/05/12 06:47:21;;;;;;;4.80;1.33;;;;;;;16.80;58.68;100863.44;6239932;23;20080;-73
2022/05/12 06:50:29;;;;;;;6.72;1.50;;;;;;;16.72;58.83;100862.16;6220484;23;20023;-73
2022/05/12 06:53:33;;;;;;;5.20;2.20;;;;;;;16.48;59.16;100870.03;6239289;23;20043;-73
2022/05/12 06:56:40;;;;;;;5.68;1.70;;;;;;;16.34;59.66;100875.47;6238701;23;20051;-73
2022/05/12 06:59:46;;;;;;;5.78;1.77;;;;;;;16.32;59.95;100874.72;6239363;23;20119;-73
2022/05/12 07:02:53;;;;;;;6.53;1.40;;;;;;;16.68;59.19;100878.31;6239049;23;20058;-73
2022/05/12 07:05:59;;;;;;;7.25;1.92;;;;;;;16.80;58.62;100876.63;6238686;22;20070;-73
2022/05/12 07:09:05;;;;;;;8.70;1.80;;;;;;;16.76;58.67;100881.31;6239340;23;20023;-73
2022/05/12 07:12:12;;;;;;;5.72;1.80;;;;;;;16.71;58.59;100878.09;6239870;23;20459;-73
2022/05/12 07:15:20;;;;;;;5.10;1.60;;;;;;;16.67;59.09;100877.50;6240175;23;20384;-73
2022/05/12 07:18:26;;;;;;;5.90;1.73;;;;;;;17.06;58.00;100880.00;6221581;23;20363;-73
2022/05/12 07:28:25;;;;;;;3.90;1.75;;;;;;;16.65;59.55;100879.38;6240127;23;20286;-73
2022/05/12 07:31:29;;;;;;;4.65;1.85;;;;;;;16.38;60.76;100898.06;6240027;23;20026;-73
2022/05/12 07:34:34;;;;;;;8.10;2.47;;;;;;;16.21;61.15;100899.25;6239433;23;20081;-73
2022/05/12 07:37:41;;;;;;;5.65;2.30;;;;;;;16.21;60.35;100899.25;6239035;23;20041;-73
2022/05/12 07:40:46;;;;;;;8.10;2.10;;;;;;;16.14;59.50;100903.25;6222027;23;20050;-73
2022/05/12 07:43:52;;;;;;;5.32;2.13;;;;;;;16.37;57.67;100901.66;6241096;23;20038;-73
2022/05/12 07:46:57;;;;;;;5.00;2.33;;;;;;;16.79;58.17;100896.94;6238739;23;20053;-72
2022/05/12 07:50:03;;;;;;;4.53;1.77;;;;;;;16.95;56.22;100901.94;6239135;23;20031;-73
2022/05/12 07:53:10;;;;;;;9.18;2.00;;;;;;;17.08;56.31;100896.59;6239204;23;20023;-73
2022/05/12 07:56:15;;;;;;;5.10;2.10;;;;;;;17.04;55.79;100905.69;6240057;23;20356;-73
2022/05/12 07:59:18;;;;;;;4.53;1.52;;;;;;;17.20;55.67;100900.97;6240033;23;20027;-73
2022/05/12 08:02:24;;;;;;;4.97;1.50;;;;;;;17.34;54.85;100903.44;6240177;23;20078;-73
2022/05/12 08:05:29;;;;;;;6.45;1.58;;;;;;;17.19;54.57;100915.97;6239814;22;20026;-73
2022/05/12 08:08:35;;;;;;;5.32;1.30;;;;;;;17.46;52.67;100924.63;6238751;23;20050;-72
2022/05/12 08:11:40;;;;;;;3.42;0.95;;;;;;;17.53;52.08;100923.22;6220624;23;20514;-73
2022/05/12 08:14:47;;;;;;;14.45;1.25;;;;;;;17.61;51.54;100928.75;6244224;23;20023;-73
2022/05/12 08:17:54;;;;;;;4.68;1.27;;;;;;;17.85;50.96;100916.34;6222668;23;20414;-73
2022/05/12 08:20:58;;;;;;;4.60;1.75;;;;;;;18.01;50.11;100928.41;6237801;23;20082;-73
2022/05/12 08:24:03;;;;;;;5.18;1.42;;;;;;;17.91;49.81;100930.91;6239183;23;20055;-73
2022/05/12 08:27:08;;;;;;;3.95;1.10;;;;;;;18.08;51.40;100935.72;6239518;23;20093;-73
2022/05/12 08:30:16;;;;;;;3.65;1.00;;;;;;;17.88;51.20;100934.63;6239391;23;20051;-73
2022/05/12 08:33:20;;;;;;;3.60;1.25;;;;;;;17.72;50.19;100934.06;6240241;23;20039;-73
2022/05/12 08:36:27;;;;;;;6.35;1.30;;;;;;;17.95;50.07;100932.34;6239602;23;20023;-73
2022/05/12 08:39:44;;;;;;;4.28;1.35;;;;;;;18.04;49.84;100938.75;6241394;23;20022;-73
2022/05/12 08:42:51;;;;;;;2.75;1.00;;;;;;;18.15;50.08;100937.91;6223801;23;20451;-73
2022/05/12 08:46:03;;;;;;;5.03;1.00;;;;;;;18.33;48.98;100941.78;6245140;23;20023;-72
2022/05/12 08:49:19;;;;;;;6.13;1.63;;;;;;;18.46;49.42;100944.31;6246440;23;20094;-73
2022/05/12 08:52:31;;;;;;;4.25;1.08;;;;;;;18.36;49.15;100944.19;6246671;23;20046;-73
2022/05/12 08:55:43;;;;;;;;;;;;;;;17.79;49.11;100951.19;6247150;23;20063;-73
2022/05/12 08:58:50;;;;;;;8.38;1.30;;;;;;;17.87;49.59;100959.41;6246430;23;19956;-73
2022/05/12 09:02:18;;;;;;;3.42;1.17;;;;;;;18.12;48.98;100944.28;6246393;23;20352;-73
2022/05/12 09:05:27;;;;;;;4.97;1.20;;;;;;;18.30;48.19;100939.38;6246437;22;20077;-73
2022/05/12 09:08:42;;;;;;;5.35;1.30;;;;;;;18.16;48.54;100948.38;6246432;23;20079;-73
2022/05/12 09:12:22;;;;;;;5.43;1.20;;;;;;;18.57;49.25;100941.66;6246184;23;20352;-73
2022/05/12 09:15:31;;;;;;;3.72;1.00;;;;;;;18.42;48.44;100940.22;6246286;23;20394;-73
2022/05/12 09:19:06;;;;;;;3.22;1.00;;;;;;;18.47;47.78;100945.97;6246399;23;20078;-73
2022/05/12 09:22:13;;;;;;;3.90;1.20;;;;;;;18.77;46.72;100932.16;6245993;23;20027;-73
2022/05/12 09:25:32;;;;;;;7.82;1.38;;;;;;;18.68;46.78;100928.38;6238505;23;20031;-73
2022/05/12 09:28:40;;;;;;;4.68;1.10;;;;;;;19.10;46.70;100933.88;6222423;23;20099;-73
2022/05/12 09:31:57;;;;;;;5.38;1.58;;;;;;;19.04;46.65;100921.94;6240415;23;20150;-73
2022/05/12 09:35:08;;;;;;;5.57;1.60;;;;;;;18.87;46.28;100917.19;6240355;23;20059;-73
2022/05/12 09:38:44;;;;;;;4.70;1.10;;;;;;;18.57;47.43;100925.78;6241614;22;20102;-73
2022/05/12 09:41:48;;;;;;;4.55;1.35;;;;;;;18.50;48.44;100919.25;6224147;23;20047;-73
2022/05/12 09:44:56;;;;;;;4.20;1.40;;;;;;;18.43;48.33;100918.06;6240855;22;20348;-73
2022/05/12 09:48:10;;;;;;;4.40;1.35;;;;;;;18.75;47.42;100913.72;6241521;22;20138;-73
2022/05/12 09:51:24;;;;;;;4.05;0.98;;;;;;;18.76;47.46;100918.06;6242299;23;20486;-73
2022/05/12 09:54:31;;;;;;;5.20;1.10;;;;;;;18.93;46.03;100903.44;6240929;23;20070;-73
2022/05/12 09:57:44;;;;;;;5.30;0.90;;;;;;;19.19;45.35;100897.81;6239999;23;20147;-73
2022/05/12 10:01:19;;;;;;;5.65;1.02;;;;;;;19.06;44.85;100897.97;6240692;23;20023;-73
2022/05/12 10:08:28;;;;;;;6.18;1.80;;;;;;;19.42;43.93;100890.59;6241135;23;20023;-73
2022/05/12 10:12:06;;;;;;;6.60;1.30;;;;;;;19.43;43.85;100886.97;6239107;23;20509;-73
2022/05/12 10:15:32;;;;;;;4.47;1.08;;;;;;;19.22;44.11;100874.53;6239759;23;20047;-73
2022/05/12 10:18:44;;;;;;;6.72;0.98;;;;;;;19.54;44.26;100878.97;6238460;23;20543;-73
2022/05/12 10:22:22;;;;;;;3.03;1.00;;;;;;;19.40;44.68;100884.56;6239957;23;20042;-74
2022/05/12 10:26:00;;;;;;;4.13;1.17;;;;;;;19.46;44.05;100882.28;6221374;23;20416;-74
2022/05/12 10:29:34;;;;;;;2.97;0.93;;;;;;;19.56;43.17;100877.03;6240538;23;20023;-73
2022/05/12 10:33:13;;;;;;;5.03;1.00;;;;;;;19.76;41.93;100872.72;6241141;23;20023;-73
2022/05/12 10:36:28;;;;;;;5.88;0.90;;;;;;;19.70;41.76;100863.44;6220420;23;20521;-73
2022/05/12 10:39:57;;;;;;;4.03;0.85;;;;;;;19.42;41.85;100864.06;6239695;23;20027;-73
2022/05/12 10:43:42;;;;;;;5.30;1.20;;;;;;;19.81;42.10;100874.97;6241080;23;20549;-73
2022/05/12 10:46:55;;;;;;;4.97;1.00;;;;;;;20.11;42.09;100861.69;6240441;23;20019;-72
2022/05/12 10:50:28;;;;;;;4.40;0.90;;;;;;;20.65;42.43;100855.19;6240380;22;20088;-73
2022/05/12 10:54:13;;;;;;;4.18;1.00;;;;;;;20.66;40.05;100870.13;6245287;23;20026;-73
2022/05/12 10:57:55;;;;;;;2.80;1.02;;;;;;;20.15;39.40;100851.66;6245310;23;20462;-73
2022/05/12 11:01:16;;;;;;;2.83;0.70;;;;;;;20.24;39.89;100842.06;6226584;23;20023;-73
2022/05/12 11:04:41;;;;;;;5.32;1.00;;;;;;;20.34;40.05;100834.94;6245276;23;20455;-74
2022/05/12 11:07:52;;;;;;;4.40;0.90;;;;;;;20.45;39.70;100840.13;6245374;23;20455;-74
2022/05/12 11:11:02;;;;;;;5.60;1.38;;;;;;;20.49;38.35;100832.75;6226093;23;20093;-74
2022/05/12 11:14:31;;;;;;;4.47;1.00;;;;;;;20.29;39.21;100830.03;6245319;23;20023;-74
2022/05/12 11:17:55;;;;;;;3.58;0.85;;;;;;;20.34;39.11;100829.63;6245429;23;20095;-74
2022/05/12 11:21:13;;;;;;;3.38;0.93;;;;;;;20.35;38.13;100836.63;6243138;23;20340;-74
2022/05/12 11:24:46;;;;;;;5.30;1.48;;;;;;;20.40;37.14;100829.09;6226398;23;20351;-74
2022/05/12 11:32:09;;;;;;;5.70;0.85;;;;;;;20.35;37.33;100832.13;6244806;23;20023;-74
2022/05/12 11:35:20;;;;;;;4.88;0.88;;;;;;;20.56;37.46;100833.91;6243452;23;20050;-74
2022/05/12 11:38:37;;;;;;;3.78;1.00;;;;;;;20.80;38.61;100833.50;6244207;23;20080;-74
2022/05/12 11:41:42;;;;;;;3.17;0.63;;;;;;;20.97;37.08;100837.31;6243476;23;20074;-74
2022/05/12 11:45:28;;;;;;;3.10;0.80;;;;;;;20.82;34.96;100842.19;6244718;23;20026;-74
2022/05/12 11:48:58;;;;;;;5.32;0.70;;;;;;;20.48;34.31;100831.06;6244714;22;20510;-74
2022/05/12 11:52:30;;;;;;;3.30;0.70;;;;;;;20.89;35.43;100832.66;6244723;23;20070;-74
2022/05/12 11:55:53;;;;;;;2.85;0.85;;;;;;;21.22;34.69;100825.25;6244255;23;20023;-74
2022/05/12 11:59:20;;;;;;;3.05;0.93;;;;;;;21.21;33.70;100818.25;6244225;23;20039;-74
2022/05/12 12:02:34;;;;;;;5.65;1.35;;;;;;;21.45;34.82;100810.69;6244418;23;20527;-74
2022/05/12 12:05:47;;;;;;;6.82;1.02;;;;;;;21.57;34.66;100806.88;6244304;23;20351;-73
2022/05/12 12:08:52;;;;;;;2.92;0.90;;;;;;;21.58;34.63;100805.88;6225359;23;20467;-73
2022/05/12 12:11:57;;;;;;;2.75;0.70;;;;;;;21.74;33.82;100810.59;6244681;23;20073;-73
2022/05/12 12:15:03;;;;;;;5.55;0.95;;;;;;;21.32;32.54;100815.44;6244856;23;20026;-73
2022/05/12 12:18:22;;;;;;;2.15;0.70;;;;;;;21.09;33.55;100804.25;6244985;23;20027;-73
2022/05/12 12:21:41;;;;;;;4.15;1.10;;;;;;;21.40;33.15;100796.13;6246385;23;20359;-73
2022/05/12 12:25:26;;;;;;;3.17;0.63;;;;;;;21.59;31.76;100804.91;6247154;23;20387;-73
2022/05/12 12:28:46;;;;;;;3.95;0.82;;;;;;;21.58;31.31;100805.88;6246866;23;20359;-73
2022/05/12 12:31:55;;;;;;;3.03;0.55;;;;;;;21.83;30.84;100816.88;6246815;23;20073;-73
2022/05/12 12:35:36;;;;;;;3.70;0.80;;;;;;;22.16;29.39;100801.34;6246925;23;20027;-73
2022/05/12 12:38:49;;;;;;;2.92;0.70;;;;;;;22.34;28.59;100791.56;6246196;23;20396;-73
2022/05/12 12:42:23;;;;;;;5.00;0.90;;;;;;;22.78;28.52;100791.63;6247046;23;20107;-73
2022/05/12 12:45:28;;;;;;;5.35;0.85;;;;;;;23.06;27.62;100797.75;6246436;23;20222;-73
2022/05/12 12:48:40;;;;;;;5.70;1.13;;;;;;;23.35;27.39;100791.28;6246650;22;20027;-73
2022/05/12 12:51:51;;;;;;;5.00;0.73;;;;;;;22.92;26.30;100804.44;6246377;23;20035;-73
2022/05/12 12:58:28;;;;;;;3.42;0.85;;;;;;;22.65;27.87;100783.19;6246214;23;20073;-73
2022/05/12 13:01:44;;;;;;;3.97;0.60;;;;;;;22.63;28.08;100785.19;6246474;23;20074;-73
2022/05/12 13:04:55;;;;;;;4.20;0.80;;;;;;;22.96;27.43;100765.84;6227902;23;20023;-73
2022/05/12 13:08:20;;;;;;;4.88;0.90;;;;;;;23.34;27.61;100768.28;6245891;23;20074;-73
2022/05/12 13:11:26;;;;;;;4.43;0.85;;;;;;;23.16;26.90;100786.97;6245278;23;20105;-73
2022/05/12 13:14:35;;;;;;;2.88;0.52;;;;;;;22.95;26.96;100780.19;6245664;23;20027;-73
2022/05/12 13:17:49;;;;;;;4.72;1.00;;;;;;;23.63;25.68;100771.44;6246405;23;20077;-73
2022/05/12 13:21:04;;;;;;;3.22;0.82;;;;;;;23.58;25.79;100760.44;6245454;23;20390;-74
2022/05/12 13:24:28;;;;;;;5.00;0.85;;;;;;;24.49;25.50;100748.25;6227044;23;20077;-73
2022/05/12 13:27:35;;;;;;;2.30;0.50;;;;;;;24.65;24.76;100737.56;6227349;23;20027;-73
2022/05/12 13:30:46;;;;;;;4.75;0.70;;;;;;;24.80;24.59;100749.25;6245659;23;20019;-73
2022/05/12 13:34:04;;;;;;;3.72;0.63;;;;;;;24.93;24.21;100730.03;6227221;23;20022;-74
2022/05/12 13:37:17;;;;;;;1.92;0.65;;;;;;;25.21;24.23;100727.03;6227354;23;20027;-73
2022/05/12 13:40:45;;;;;;;2.85;0.65;;;;;;;25.26;23.75;100725.47;6245876;23;20387;-74
2022/05/12 13:43:58;;;;;;;3.28;0.68;;;;;;;25.52;23.67;100719.06;6245875;23;20027;-73
2022/05/12 13:47:13;;;;;;;4.88;0.70;;;;;;;25.50;23.44;100721.91;6245861;23;20069;-74
2022/05/12 13:50:21;;;;;;;2.55;0.70;;;;;;;26.73;21.32;100706.97;6245428;22;20184;-73
2022/05/12 13:53:34;;;;;;;1.95;0.60;;;;;;;28.30;19.73;100695.03;6246032;23;20070;-74
2022/05/12 13:56:41;;;;;;;2.42;0.77;;;;;;;28.97;18.63;100702.69;6244712;23;20038;-74
2022/05/12 14:00:14;;;;;;;3.80;0.57;;;;;;;30.63;16.72;100705.22;6245567;23;20047;-72
2022/05/12 14:03:38;;;;;;;3.53;0.63;;;;;;;33.36;15.21;100701.94;6245403;23;20421;-73
2022/05/12 14:06:58;;;;;;;6.90;0.88;;;;;;;32.32;16.06;100690.75;6245536;23;20027;-73
2022/05/12 14:10:28;;;;;;;3.17;0.73;;;;;;;32.00;16.29;100689.13;6246250;22;20066;-73
2022/05/12 14:20:33;;;;;;;5.20;1.10;;;;;;;33.84;14.48;100693.03;6245473;23;20027;-74
2022/05/12 14:23:36;;;;;;;5.07;1.10;;;;;;;32.56;15.03;100681.03;6245547;23;20375;-74
2022/05/12 14:26:40;;;;;;;4.30;0.82;;;;;;;34.55;14.08;100676.97;6245427;23;20030;-74
2022/05/12 14:29:45;;;;;;;2.33;0.95;;;;;;;35.35;12.58;100663.56;6245613;23;20061;-74
2022/05/12 14:32:55;;;;;;;4.13;1.00;;;;;;;36.94;12.26;100667.19;6245094;23;20146;-74
2022/05/12 14:36:04;;;;;;;2.78;0.90;;;;;;;35.70;12.41;100689.84;6245275;23;20046;-74
2022/05/12 14:39:30;;;;;;;2.47;0.90;;;;;;;32.84;14.79;100679.75;6244814;23;20026;-74
2022/05/12 14:42:34;;;;;;;2.33;0.82;;;;;;;33.74;14.50;100704.41;6245325;23;20109;-74
2022/05/12 14:45:40;;;;;;;2.65;1.05;;;;;;;34.88;13.09;100671.78;6245439;23;20027;-74
2022/05/12 14:48:48;;;;;;;2.10;0.80;;;;;;;36.97;11.90;100668.56;6244980;23;20039;-74
2022/05/12 14:52:04;;;;;;;2.90;1.23;;;;;;;34.80;13.31;100669.41;6245243;23;20455;-74
2022/05/12 14:55:08;;;;;;;2.00;0.82;;;;;;;33.78;14.33;100672.25;6245221;23;20023;-74
2022/05/12 14:58:12;;;;;;;2.15;0.68;;;;;;;33.42;14.40;100676.66;6244739;23;20027;-74
2022/05/12 15:01:20;;;;;;;4.07;1.10;;;;;;;31.05;16.32;100681.56;6245112;23;20526;-74
2022/05/12 15:08:30;;;;;;;2.63;0.80;;;;;;;31.77;15.73;100663.41;6239216;23;20027;-74
2022/05/12 15:11:34;;;;;;;2.28;0.85;;;;;;;33.03;14.91;100648.13;6238235;22;20030;-74
2022/05/12 15:18:14;;;;;;;3.33;1.10;;;;;;;33.63;14.54;100652.84;6240194;23;20398;-74
2022/05/12 15:21:23;;;;;;;3.75;0.85;;;;;;;33.17;15.43;100649.63;6239577;23;20026;-74
2022/05/12 15:24:30;;;;;;;3.67;0.93;;;;;;;31.47;16.49;100657.75;6238767;23;20051;-74
2022/05/12 15:27:37;;;;;;;4.55;0.90;;;;;;;32.76;15.94;100659.19;6239089;23;20027;-75